sensor_id;sensor_type;location;lat;lon;timestamp;P1;durP1;ratioP1;P2;durP2;ratioP2
57111;SDS011;42992;49.084;19.300;2023-08-24T00:00:50;15.50;;;12.50;;
57111;SDS011;42992;49.084;19.300;2023-08-24T00:03:16;16.15;;;13.38;;
57111;SDS011;42992;49.084;19.300;2023-08-24T00:05:41;15.18;;;13.25;;
57111;SDS011;42992;49.084;19.300;2023-08-24T00:08:07;14.63;;;12.73;;
57111;SDS011;42992;49.084;19.300;2023-08-24T00:10:33;15.38;;;13.02;;
57111;SDS011;42992;49.084;19.300;2023-08-24T00:12:58;14.25;;;12.38;;
57111;SDS011;42992;49.084;19.300;2023-08-24T00:15:24;19.73;;;12.52;;
57111;SDS011;42992;49.084;19.300;2023-08-24T00:17:49;14.77;;;12.38;;
57111;SDS011;42992;49.084;19.300;2023-08-24T00:20:15;16.50;;;12.35;;
57111;SDS011;42992;49.084;19.300;2023-08-24T00:22:40;14.82;;;12.48;;
57111;SDS011;42992;49.084;19.300;2023-08-24T00:25:06;18.17;;;12.80;;
57111;SDS011;42992;49.084;19.300;2023-08-24T00:27:31;14.50;;;12.43;;
57111;SDS011;42992;49.084;19.300;2023-08-24T00:29:57;16.00;;;12.25;;
57111;SDS011;42992;49.084;19.300;2023-08-24T00:32:22;15.25;;;12.90;;
57111;SDS011;42992;49.084;19.300;2023-08-24T00:34:47;18.02;;;13.65;;
57111;SDS011;42992;49.084;19.300;2023-08-24T00:37:13;15.95;;;13.73;;
57111;SDS011;42992;49.084;19.300;2023-08-24T00:39:38;15.50;;;13.40;;
57111;SDS011;42992;49.084;19.300;2023-08-24T00:42:03;17.48;;;12.95;;
57111;SDS011;42992;49.084;19.300;2023-08-24T00:44:28;19.08;;;12.48;;
57111;SDS011;42992;49.084;19.300;2023-08-24T00:46:54;18.63;;;13.05;;
57111;SDS011;42992;49.084;19.300;2023-08-24T00:49:19;17.92;;;14.18;;
57111;SDS011;42992;49.084;19.300;2023-08-24T00:51:45;17.52;;;13.23;;
57111;SDS011;42992;49.084;19.300;2023-08-24T00:54:10;18.10;;;13.57;;
57111;SDS011;42992;49.084;19.300;2023-08-24T00:56:36;17.35;;;14.02;;
57111;SDS011;42992;49.084;19.300;2023-08-24T00:59:02;14.65;;;12.20;;
57111;SDS011;42992;49.084;19.300;2023-08-24T01:01:27;16.88;;;12.95;;
57111;SDS011;42992;49.084;19.300;2023-08-24T01:03:52;17.63;;;13.52;;
57111;SDS011;42992;49.084;19.300;2023-08-24T01:06:17;18.20;;;14.43;;
57111;SDS011;42992;49.084;19.300;2023-08-24T01:08:43;22.25;;;14.52;;
57111;SDS011;42992;49.084;19.300;2023-08-24T01:13:46;16.67;;;13.73;;
57111;SDS011;42992;49.084;19.300;2023-08-24T01:16:16;18.95;;;13.82;;
57111;SDS011;42992;49.084;19.300;2023-08-24T01:18:43;15.57;;;13.25;;
57111;SDS011;42992;49.084;19.300;2023-08-24T01:21:09;15.90;;;12.80;;
57111;SDS011;42992;49.084;19.300;2023-08-24T01:26:19;18.48;;;14.18;;
57111;SDS011;42992;49.084;19.300;2023-08-24T01:28:45;17.75;;;14.38;;
57111;SDS011;42992;49.084;19.300;2023-08-24T01:31:10;15.70;;;14.05;;
57111;SDS011;42992;49.084;19.300;2023-08-24T01:33:36;16.75;;;13.70;;
57111;SDS011;42992;49.084;19.300;2023-08-24T01:36:01;15.80;;;13.52;;
57111;SDS011;42992;49.084;19.300;2023-08-24T01:38:27;17.58;;;13.40;;
57111;SDS011;42992;49.084;19.300;2023-08-24T01:43:30;18.23;;;14.70;;
57111;SDS011;42992;49.084;19.300;2023-08-24T01:45:58;18.80;;;13.95;;
57111;SDS011;42992;49.084;19.300;2023-08-24T01:48:24;18.33;;;13.57;;
57111;SDS011;42992;49.084;19.300;2023-08-24T01:50:50;17.35;;;14.35;;
57111;SDS011;42992;49.084;19.300;2023-08-24T01:53:15;16.08;;;14.10;;
57111;SDS011;42992;49.084;19.300;2023-08-24T01:55:41;16.92;;;13.50;;
57111;SDS011;42992;49.084;19.300;2023-08-24T01:58:06;17.05;;;13.18;;
57111;SDS011;42992;49.084;19.300;2023-08-24T02:00:31;16.05;;;13.27;;
57111;SDS011;42992;49.084;19.300;2023-08-24T02:02:56;17.73;;;13.73;;
57111;SDS011;42992;49.084;19.300;2023-08-24T02:05:22;17.80;;;13.77;;
57111;SDS011;42992;49.084;19.300;2023-08-24T02:07:49;20.73;;;14.15;;
57111;SDS011;42992;49.084;19.300;2023-08-24T02:10:14;19.08;;;13.45;;
57111;SDS011;42992;49.084;19.300;2023-08-24T02:12:40;16.90;;;14.43;;
57111;SDS011;42992;49.084;19.300;2023-08-24T02:15:05;20.33;;;14.07;;
57111;SDS011;42992;49.084;19.300;2023-08-24T02:17:31;17.23;;;13.63;;
57111;SDS011;42992;49.084;19.300;2023-08-24T02:19:56;20.30;;;15.52;;
57111;SDS011;42992;49.084;19.300;2023-08-24T02:22:21;18.02;;;14.45;;
57111;SDS011;42992;49.084;19.300;2023-08-24T02:24:46;18.38;;;14.25;;
57111;SDS011;42992;49.084;19.300;2023-08-24T02:27:11;18.55;;;14.73;;
57111;SDS011;42992;49.084;19.300;2023-08-24T02:29:37;18.48;;;13.40;;
57111;SDS011;42992;49.084;19.300;2023-08-24T02:32:03;18.63;;;13.70;;
57111;SDS011;42992;49.084;19.300;2023-08-24T02:34:28;17.35;;;14.48;;
57111;SDS011;42992;49.084;19.300;2023-08-24T02:36:53;18.35;;;15.13;;
57111;SDS011;42992;49.084;19.300;2023-08-24T02:39:18;18.20;;;14.53;;
57111;SDS011;42992;49.084;19.300;2023-08-24T02:41:44;16.58;;;13.80;;
57111;SDS011;42992;49.084;19.300;2023-08-24T02:44:09;16.60;;;13.25;;
57111;SDS011;42992;49.084;19.300;2023-08-24T02:46:34;16.65;;;12.80;;
57111;SDS011;42992;49.084;19.300;2023-08-24T02:48:59;19.30;;;15.38;;
57111;SDS011;42992;49.084;19.300;2023-08-24T02:51:25;20.90;;;14.90;;
57111;SDS011;42992;49.084;19.300;2023-08-24T02:53:50;20.60;;;15.30;;
57111;SDS011;42992;49.084;19.300;2023-08-24T02:56:15;19.58;;;15.32;;
57111;SDS011;42992;49.084;19.300;2023-08-24T02:58:41;20.10;;;14.60;;
57111;SDS011;42992;49.084;19.300;2023-08-24T03:01:06;21.52;;;14.10;;
57111;SDS011;42992;49.084;19.300;2023-08-24T03:03:32;20.45;;;14.48;;
57111;SDS011;42992;49.084;19.300;2023-08-24T03:06:01;16.67;;;14.88;;
57111;SDS011;42992;49.084;19.300;2023-08-24T03:08:27;21.00;;;13.68;;
57111;SDS011;42992;49.084;19.300;2023-08-24T03:10:52;20.20;;;13.55;;
57111;SDS011;42992;49.084;19.300;2023-08-24T03:13:18;17.30;;;14.43;;
57111;SDS011;42992;49.084;19.300;2023-08-24T03:15:43;23.38;;;16.00;;
57111;SDS011;42992;49.084;19.300;2023-08-24T03:18:10;19.80;;;15.60;;
57111;SDS011;42992;49.084;19.300;2023-08-24T03:20:35;18.00;;;15.82;;
57111;SDS011;42992;49.084;19.300;2023-08-24T03:23:01;19.27;;;16.05;;
57111;SDS011;42992;49.084;19.300;2023-08-24T03:25:26;20.60;;;17.10;;
57111;SDS011;42992;49.084;19.300;2023-08-24T03:27:51;19.73;;;14.45;;
57111;SDS011;42992;49.084;19.300;2023-08-24T03:30:17;18.00;;;13.88;;
57111;SDS011;42992;49.084;19.300;2023-08-24T03:32:42;18.60;;;14.68;;
57111;SDS011;42992;49.084;19.300;2023-08-24T03:35:07;19.13;;;14.65;;
57111;SDS011;42992;49.084;19.300;2023-08-24T03:37:33;18.05;;;15.20;;
57111;SDS011;42992;49.084;19.300;2023-08-24T03:39:58;17.73;;;13.90;;
57111;SDS011;42992;49.084;19.300;2023-08-24T03:42:23;17.55;;;14.02;;
57111;SDS011;42992;49.084;19.300;2023-08-24T03:44:49;16.88;;;14.50;;
57111;SDS011;42992;49.084;19.300;2023-08-24T03:47:14;18.55;;;15.38;;
57111;SDS011;42992;49.084;19.300;2023-08-24T03:49:41;19.20;;;14.13;;
57111;SDS011;42992;49.084;19.300;2023-08-24T03:52:06;19.77;;;14.63;;
57111;SDS011;42992;49.084;19.300;2023-08-24T03:54:32;22.42;;;14.43;;
57111;SDS011;42992;49.084;19.300;2023-08-24T03:56:57;18.50;;;15.73;;
57111;SDS011;42992;49.084;19.300;2023-08-24T03:59:22;17.50;;;12.98;;
57111;SDS011;42992;49.084;19.300;2023-08-24T04:01:47;18.25;;;13.45;;
57111;SDS011;42992;49.084;19.300;2023-08-24T04:04:12;16.60;;;13.77;;
57111;SDS011;42992;49.084;19.300;2023-08-24T04:06:38;16.33;;;13.63;;
57111;SDS011;42992;49.084;19.300;2023-08-24T04:09:04;16.67;;;13.40;;
57111;SDS011;42992;49.084;19.300;2023-08-24T04:11:30;15.95;;;13.00;;
57111;SDS011;42992;49.084;19.300;2023-08-24T04:13:55;17.60;;;13.98;;
57111;SDS011;42992;49.084;19.300;2023-08-24T04:16:20;19.05;;;13.70;;
57111;SDS011;42992;49.084;19.300;2023-08-24T04:18:45;20.80;;;14.63;;
57111;SDS011;42992;49.084;19.300;2023-08-24T04:21:10;19.17;;;14.90;;
57111;SDS011;42992;49.084;19.300;2023-08-24T04:23:36;17.48;;;14.65;;
57111;SDS011;42992;49.084;19.300;2023-08-24T04:26:01;16.88;;;14.63;;
57111;SDS011;42992;49.084;19.300;2023-08-24T04:28:26;18.38;;;15.15;;
57111;SDS011;42992;49.084;19.300;2023-08-24T04:30:56;20.55;;;15.18;;
57111;SDS011;42992;49.084;19.300;2023-08-24T04:33:22;18.02;;;14.13;;
57111;SDS011;42992;49.084;19.300;2023-08-24T04:35:48;21.15;;;14.82;;
57111;SDS011;42992;49.084;19.300;2023-08-24T04:38:13;15.88;;;13.70;;
57111;SDS011;42992;49.084;19.300;2023-08-24T04:40:50;17.23;;;13.77;;
57111;SDS011;42992;49.084;19.300;2023-08-24T04:43:16;18.15;;;13.52;;
57111;SDS011;42992;49.084;19.300;2023-08-24T04:45:41;16.95;;;14.73;;
57111;SDS011;42992;49.084;19.300;2023-08-24T04:48:07;19.58;;;14.88;;
57111;SDS011;42992;49.084;19.300;2023-08-24T04:50:32;19.67;;;15.23;;
57111;SDS011;42992;49.084;19.300;2023-08-24T04:52:57;26.42;;;15.40;;
57111;SDS011;42992;49.084;19.300;2023-08-24T04:55:23;17.38;;;14.00;;
57111;SDS011;42992;49.084;19.300;2023-08-24T04:57:48;17.92;;;14.35;;
57111;SDS011;42992;49.084;19.300;2023-08-24T05:00:13;19.25;;;14.68;;
57111;SDS011;42992;49.084;19.300;2023-08-24T05:02:41;17.88;;;14.23;;
57111;SDS011;42992;49.084;19.300;2023-08-24T05:05:06;25.45;;;16.42;;
57111;SDS011;42992;49.084;19.300;2023-08-24T05:07:32;24.80;;;16.15;;
57111;SDS011;42992;49.084;19.300;2023-08-24T05:09:57;19.20;;;14.10;;
57111;SDS011;42992;49.084;19.300;2023-08-24T05:12:22;21.70;;;14.23;;
57111;SDS011;42992;49.084;19.300;2023-08-24T05:14:48;27.52;;;15.18;;
57111;SDS011;42992;49.084;19.300;2023-08-24T05:17:13;22.63;;;13.82;;
57111;SDS011;42992;49.084;19.300;2023-08-24T05:19:38;18.95;;;15.20;;
57111;SDS011;42992;49.084;19.300;2023-08-24T05:22:03;16.30;;;14.13;;
57111;SDS011;42992;49.084;19.300;2023-08-24T05:24:28;16.85;;;14.57;;
57111;SDS011;42992;49.084;19.300;2023-08-24T05:26:54;16.77;;;13.38;;
57111;SDS011;42992;49.084;19.300;2023-08-24T05:29:19;20.67;;;13.55;;
57111;SDS011;42992;49.084;19.300;2023-08-24T05:31:44;30.40;;;14.80;;
57111;SDS011;42992;49.084;19.300;2023-08-24T05:34:09;16.70;;;14.43;;
57111;SDS011;42992;49.084;19.300;2023-08-24T05:36:34;15.93;;;13.02;;
57111;SDS011;42992;49.084;19.300;2023-08-24T05:39:00;33.50;;;13.77;;
57111;SDS011;42992;49.084;19.300;2023-08-24T05:41:25;18.40;;;13.60;;
57111;SDS011;42992;49.084;19.300;2023-08-24T05:43:50;15.32;;;13.68;;
57111;SDS011;42992;49.084;19.300;2023-08-24T05:46:17;15.88;;;12.70;;
57111;SDS011;42992;49.084;19.300;2023-08-24T05:48:43;18.90;;;13.00;;
57111;SDS011;42992;49.084;19.300;2023-08-24T05:51:08;22.88;;;14.65;;
57111;SDS011;42992;49.084;19.300;2023-08-24T05:53:35;26.13;;;14.20;;
57111;SDS011;42992;49.084;19.300;2023-08-24T05:56:00;18.77;;;13.30;;
57111;SDS011;42992;49.084;19.300;2023-08-24T05:58:25;17.05;;;13.48;;
57111;SDS011;42992;49.084;19.300;2023-08-24T06:00:55;16.00;;;14.23;;
57111;SDS011;42992;49.084;19.300;2023-08-24T06:03:20;16.00;;;13.23;;
57111;SDS011;42992;49.084;19.300;2023-08-24T06:05:45;16.10;;;12.63;;
57111;SDS011;42992;49.084;19.300;2023-08-24T06:08:11;16.93;;;13.60;;
57111;SDS011;42992;49.084;19.300;2023-08-24T06:10:36;15.52;;;13.82;;
57111;SDS011;42992;49.084;19.300;2023-08-24T06:13:01;16.20;;;13.30;;
57111;SDS011;42992;49.084;19.300;2023-08-24T06:15:26;16.15;;;14.43;;
57111;SDS011;42992;49.084;19.300;2023-08-24T06:17:53;16.65;;;13.52;;
57111;SDS011;42992;49.084;19.300;2023-08-24T06:20:18;17.88;;;13.65;;
57111;SDS011;42992;49.084;19.300;2023-08-24T06:22:44;16.17;;;13.80;;
57111;SDS011;42992;49.084;19.300;2023-08-24T06:25:09;17.42;;;14.10;;
57111;SDS011;42992;49.084;19.300;2023-08-24T06:27:34;17.35;;;14.27;;
57111;SDS011;42992;49.084;19.300;2023-08-24T06:30:00;17.92;;;14.25;;
57111;SDS011;42992;49.084;19.300;2023-08-24T06:32:26;16.38;;;14.18;;
57111;SDS011;42992;49.084;19.300;2023-08-24T06:34:51;15.93;;;14.23;;
57111;SDS011;42992;49.084;19.300;2023-08-24T06:37:16;15.63;;;14.02;;
57111;SDS011;42992;49.084;19.300;2023-08-24T06:39:41;18.75;;;13.23;;
57111;SDS011;42992;49.084;19.300;2023-08-24T06:42:06;15.77;;;12.15;;
57111;SDS011;42992;49.084;19.300;2023-08-24T06:44:32;18.70;;;13.38;;
57111;SDS011;42992;49.084;19.300;2023-08-24T06:46:57;18.20;;;13.10;;
57111;SDS011;42992;49.084;19.300;2023-08-24T06:49:22;16.00;;;12.53;;
57111;SDS011;42992;49.084;19.300;2023-08-24T06:51:47;24.67;;;13.80;;
57111;SDS011;42992;49.084;19.300;2023-08-24T06:54:13;35.53;;;15.13;;
57111;SDS011;42992;49.084;19.300;2023-08-24T06:56:39;18.38;;;13.43;;
57111;SDS011;42992;49.084;19.300;2023-08-24T06:59:05;45.83;;;15.98;;
57111;SDS011;42992;49.084;19.300;2023-08-24T07:01:30;21.88;;;13.25;;
57111;SDS011;42992;49.084;19.300;2023-08-24T07:03:56;17.98;;;13.02;;
57111;SDS011;42992;49.084;19.300;2023-08-24T07:06:22;15.07;;;12.55;;
57111;SDS011;42992;49.084;19.300;2023-08-24T07:08:47;14.88;;;12.60;;
57111;SDS011;42992;49.084;19.300;2023-08-24T07:11:12;26.08;;;13.20;;
57111;SDS011;42992;49.084;19.300;2023-08-24T07:13:39;15.15;;;13.18;;
57111;SDS011;42992;49.084;19.300;2023-08-24T07:16:05;14.82;;;11.88;;
57111;SDS011;42992;49.084;19.300;2023-08-24T07:18:30;20.35;;;13.18;;
57111;SDS011;42992;49.084;19.300;2023-08-24T07:20:55;15.48;;;12.77;;
57111;SDS011;42992;49.084;19.300;2023-08-24T07:23:21;15.82;;;12.63;;
57111;SDS011;42992;49.084;19.300;2023-08-24T07:25:46;15.77;;;12.90;;
57111;SDS011;42992;49.084;19.300;2023-08-24T07:28:11;13.27;;;11.57;;
57111;SDS011;42992;49.084;19.300;2023-08-24T07:30:36;14.75;;;11.98;;
57111;SDS011;42992;49.084;19.300;2023-08-24T07:33:02;16.50;;;11.43;;
57111;SDS011;42992;49.084;19.300;2023-08-24T07:35:30;15.80;;;11.63;;
57111;SDS011;42992;49.084;19.300;2023-08-24T07:37:56;14.80;;;10.55;;
57111;SDS011;42992;49.084;19.300;2023-08-24T07:40:21;14.27;;;10.55;;
57111;SDS011;42992;49.084;19.300;2023-08-24T07:42:47;14.18;;;10.57;;
57111;SDS011;42992;49.084;19.300;2023-08-24T07:45:13;13.60;;;10.88;;
57111;SDS011;42992;49.084;19.300;2023-08-24T07:47:39;15.65;;;10.45;;
57111;SDS011;42992;49.084;19.300;2023-08-24T07:50:04;11.43;;;10.07;;
57111;SDS011;42992;49.084;19.300;2023-08-24T07:52:31;12.50;;;9.60;;
57111;SDS011;42992;49.084;19.300;2023-08-24T07:54:56;13.07;;;9.88;;
57111;SDS011;42992;49.084;19.300;2023-08-24T07:57:24;11.73;;;10.05;;
57111;SDS011;42992;49.084;19.300;2023-08-24T07:59:51;12.73;;;9.70;;
57111;SDS011;42992;49.084;19.300;2023-08-24T08:02:16;11.43;;;9.18;;
57111;SDS011;42992;49.084;19.300;2023-08-24T08:04:41;12.03;;;9.13;;
57111;SDS011;42992;49.084;19.300;2023-08-24T08:07:07;12.27;;;9.75;;
57111;SDS011;42992;49.084;19.300;2023-08-24T08:09:32;11.00;;;8.45;;
57111;SDS011;42992;49.084;19.300;2023-08-24T08:11:57;10.27;;;7.35;;
57111;SDS011;42992;49.084;19.300;2023-08-24T08:14:22;12.02;;;8.13;;
57111;SDS011;42992;49.084;19.300;2023-08-24T08:16:48;9.13;;;8.05;;
57111;SDS011;42992;49.084;19.300;2023-08-24T08:19:14;13.27;;;7.95;;
57111;SDS011;42992;49.084;19.300;2023-08-24T08:21:39;11.13;;;8.38;;
57111;SDS011;42992;49.084;19.300;2023-08-24T08:24:04;8.88;;;7.32;;
57111;SDS011;42992;49.084;19.300;2023-08-24T08:26:30;9.40;;;7.35;;
57111;SDS011;42992;49.084;19.300;2023-08-24T08:28:55;7.95;;;7.07;;
57111;SDS011;42992;49.084;19.300;2023-08-24T08:31:20;9.10;;;6.77;;
57111;SDS011;42992;49.084;19.300;2023-08-24T08:33:45;19.58;;;6.80;;
57111;SDS011;42992;49.084;19.300;2023-08-24T08:36:12;14.10;;;7.43;;
57111;SDS011;42992;49.084;19.300;2023-08-24T08:38:38;9.60;;;6.50;;
57111;SDS011;42992;49.084;19.300;2023-08-24T08:41:03;11.80;;;6.70;;
57111;SDS011;42992;49.084;19.300;2023-08-24T08:43:29;13.43;;;7.72;;
57111;SDS011;42992;49.084;19.300;2023-08-24T08:45:58;9.25;;;6.07;;
57111;SDS011;42992;49.084;19.300;2023-08-24T08:48:24;11.88;;;6.03;;
57111;SDS011;42992;49.084;19.300;2023-08-24T08:50:49;10.15;;;6.10;;
57111;SDS011;42992;49.084;19.300;2023-08-24T08:53:15;8.23;;;5.25;;
57111;SDS011;42992;49.084;19.300;2023-08-24T08:55:40;7.28;;;3.88;;
57111;SDS011;42992;49.084;19.300;2023-08-24T08:58:06;5.43;;;4.03;;
57111;SDS011;42992;49.084;19.300;2023-08-24T09:00:32;8.88;;;4.45;;
57111;SDS011;42992;49.084;19.300;2023-08-24T09:02:57;8.80;;;4.60;;
57111;SDS011;42992;49.084;19.300;2023-08-24T09:05:23;14.85;;;5.05;;
57111;SDS011;42992;49.084;19.300;2023-08-24T09:07:51;7.25;;;4.35;;
57111;SDS011;42992;49.084;19.300;2023-08-24T09:10:18;9.00;;;4.78;;
57111;SDS011;42992;49.084;19.300;2023-08-24T09:12:43;6.32;;;4.45;;
57111;SDS011;42992;49.084;19.300;2023-08-24T09:15:08;10.18;;;4.30;;
57111;SDS011;42992;49.084;19.300;2023-08-24T09:17:34;5.47;;;3.90;;
57111;SDS011;42992;49.084;19.300;2023-08-24T09:20:00;6.22;;;3.85;;
57111;SDS011;42992;49.084;19.300;2023-08-24T09:22:25;6.97;;;3.97;;
57111;SDS011;42992;49.084;19.300;2023-08-24T09:24:51;5.73;;;3.67;;
57111;SDS011;42992;49.084;19.300;2023-08-24T09:27:20;5.72;;;3.80;;
57111;SDS011;42992;49.084;19.300;2023-08-24T09:29:49;7.65;;;3.80;;
57111;SDS011;42992;49.084;19.300;2023-08-24T09:32:15;6.38;;;3.53;;
57111;SDS011;42992;49.084;19.300;2023-08-24T09:34:40;6.95;;;4.10;;
57111;SDS011;42992;49.084;19.300;2023-08-24T09:37:12;5.82;;;3.67;;
57111;SDS011;42992;49.084;19.300;2023-08-24T09:39:38;7.60;;;3.70;;
57111;SDS011;42992;49.084;19.300;2023-08-24T09:42:03;7.88;;;4.10;;
57111;SDS011;42992;49.084;19.300;2023-08-24T09:44:29;5.50;;;3.95;;
57111;SDS011;42992;49.084;19.300;2023-08-24T09:46:54;6.18;;;3.60;;
57111;SDS011;42992;49.084;19.300;2023-08-24T09:49:20;8.13;;;3.53;;
57111;SDS011;42992;49.084;19.300;2023-08-24T09:51:45;6.38;;;4.18;;
57111;SDS011;42992;49.084;19.300;2023-08-24T09:54:11;8.10;;;3.80;;
57111;SDS011;42992;49.084;19.300;2023-08-24T09:56:41;6.40;;;4.15;;
57111;SDS011;42992;49.084;19.300;2023-08-24T09:59:10;7.03;;;3.65;;
57111;SDS011;42992;49.084;19.300;2023-08-24T10:01:37;9.30;;;3.95;;
57111;SDS011;42992;49.084;19.300;2023-08-24T10:04:03;5.40;;;4.00;;
57111;SDS011;42992;49.084;19.300;2023-08-24T10:06:30;6.72;;;4.40;;
57111;SDS011;42992;49.084;19.300;2023-08-24T10:08:58;6.18;;;4.00;;
57111;SDS011;42992;49.084;19.300;2023-08-24T10:11:26;7.32;;;4.32;;
57111;SDS011;42992;49.084;19.300;2023-08-24T10:13:54;5.93;;;3.80;;
57111;SDS011;42992;49.084;19.300;2023-08-24T10:16:20;6.32;;;4.13;;
57111;SDS011;42992;49.084;19.300;2023-08-24T10:18:46;7.50;;;4.40;;
57111;SDS011;42992;49.084;19.300;2023-08-24T10:21:12;5.93;;;4.18;;
57111;SDS011;42992;49.084;19.300;2023-08-24T10:23:38;5.60;;;3.90;;
57111;SDS011;42992;49.084;19.300;2023-08-24T10:26:04;5.40;;;4.03;;
57111;SDS011;42992;49.084;19.300;2023-08-24T10:28:30;6.35;;;4.47;;
57111;SDS011;42992;49.084;19.300;2023-08-24T10:30:57;7.13;;;4.25;;
57111;SDS011;42992;49.084;19.300;2023-08-24T10:33:23;7.60;;;4.78;;
57111;SDS011;42992;49.084;19.300;2023-08-24T10:35:48;6.85;;;4.53;;
57111;SDS011;42992;49.084;19.300;2023-08-24T10:38:23;20.17;;;5.38;;
57111;SDS011;42992;49.084;19.300;2023-08-24T10:40:49;7.68;;;4.57;;
57111;SDS011;42992;49.084;19.300;2023-08-24T10:43:15;8.57;;;4.63;;
57111;SDS011;42992;49.084;19.300;2023-08-24T10:45:54;7.20;;;4.22;;
57111;SDS011;42992;49.084;19.300;2023-08-24T10:48:19;7.35;;;4.55;;
57111;SDS011;42992;49.084;19.300;2023-08-24T10:51:08;6.60;;;4.50;;
57111;SDS011;42992;49.084;19.300;2023-08-24T10:53:39;8.48;;;4.22;;
57111;SDS011;42992;49.084;19.300;2023-08-24T10:56:14;6.95;;;4.13;;
57111;SDS011;42992;49.084;19.300;2023-08-24T10:58:40;7.28;;;4.00;;
57111;SDS011;42992;49.084;19.300;2023-08-24T11:01:05;8.05;;;4.43;;
57111;SDS011;42992;49.084;19.300;2023-08-24T11:03:31;8.10;;;4.63;;
57111;SDS011;42992;49.084;19.300;2023-08-24T11:05:56;7.60;;;4.50;;
57111;SDS011;42992;49.084;19.300;2023-08-24T11:08:22;8.50;;;4.60;;
57111;SDS011;42992;49.084;19.300;2023-08-24T11:11:17;6.22;;;3.88;;
57111;SDS011;42992;49.084;19.300;2023-08-24T11:14:03;8.05;;;4.57;;
57111;SDS011;42992;49.084;19.300;2023-08-24T11:16:44;7.78;;;4.53;;
57111;SDS011;42992;49.084;19.300;2023-08-24T11:19:10;6.63;;;4.45;;
57111;SDS011;42992;49.084;19.300;2023-08-24T11:21:36;8.48;;;4.35;;
57111;SDS011;42992;49.084;19.300;2023-08-24T11:24:02;6.78;;;4.72;;
57111;SDS011;42992;49.084;19.300;2023-08-24T11:26:27;8.05;;;4.65;;
57111;SDS011;42992;49.084;19.300;2023-08-24T11:28:54;11.43;;;4.85;;
57111;SDS011;42992;49.084;19.300;2023-08-24T11:31:19;7.97;;;4.18;;
57111;SDS011;42992;49.084;19.300;2023-08-24T11:33:45;6.22;;;3.83;;
57111;SDS011;42992;49.084;19.300;2023-08-24T11:36:10;5.32;;;3.95;;
57111;SDS011;42992;49.084;19.300;2023-08-24T11:38:41;7.07;;;4.30;;
57111;SDS011;42992;49.084;19.300;2023-08-24T11:41:16;6.25;;;4.57;;
57111;SDS011;42992;49.084;19.300;2023-08-24T11:43:45;6.30;;;4.00;;
57111;SDS011;42992;49.084;19.300;2023-08-24T11:46:11;8.05;;;4.75;;
57111;SDS011;42992;49.084;19.300;2023-08-24T11:48:37;6.10;;;4.00;;
57111;SDS011;42992;49.084;19.300;2023-08-24T11:51:06;6.32;;;4.18;;
57111;SDS011;42992;49.084;19.300;2023-08-24T11:53:35;6.80;;;4.28;;
57111;SDS011;42992;49.084;19.300;2023-08-24T11:56:02;7.45;;;4.05;;
57111;SDS011;42992;49.084;19.300;2023-08-24T11:58:27;7.00;;;4.63;;
57111;SDS011;42992;49.084;19.300;2023-08-24T12:00:52;5.28;;;3.78;;
57111;SDS011;42992;49.084;19.300;2023-08-24T12:03:18;6.28;;;4.25;;
57111;SDS011;42992;49.084;19.300;2023-08-24T12:05:43;6.18;;;4.15;;
57111;SDS011;42992;49.084;19.300;2023-08-24T12:08:10;5.78;;;4.20;;
57111;SDS011;42992;49.084;19.300;2023-08-24T12:10:40;7.28;;;4.28;;
57111;SDS011;42992;49.084;19.300;2023-08-24T12:13:06;6.22;;;4.20;;
57111;SDS011;42992;49.084;19.300;2023-08-24T12:15:35;7.05;;;4.38;;
57111;SDS011;42992;49.084;19.300;2023-08-24T12:18:13;6.05;;;4.07;;
57111;SDS011;42992;49.084;19.300;2023-08-24T12:20:42;6.47;;;4.10;;
57111;SDS011;42992;49.084;19.300;2023-08-24T12:23:07;5.57;;;4.10;;
57111;SDS011;42992;49.084;19.300;2023-08-24T12:25:37;10.00;;;6.10;;
57111;SDS011;42992;49.084;19.300;2023-08-24T12:30:47;6.68;;;4.28;;
57111;SDS011;42992;49.084;19.300;2023-08-24T12:33:26;5.80;;;3.90;;
57111;SDS011;42992;49.084;19.300;2023-08-24T12:35:52;7.00;;;3.85;;
57111;SDS011;42992;49.084;19.300;2023-08-24T12:38:17;8.23;;;4.30;;
57111;SDS011;42992;49.084;19.300;2023-08-24T12:40:42;7.50;;;4.28;;
57111;SDS011;42992;49.084;19.300;2023-08-24T12:43:08;6.40;;;4.13;;
57111;SDS011;42992;49.084;19.300;2023-08-24T12:45:33;8.93;;;3.75;;
57111;SDS011;42992;49.084;19.300;2023-08-24T12:47:58;5.13;;;3.92;;
57111;SDS011;42992;49.084;19.300;2023-08-24T12:50:24;5.20;;;3.65;;
57111;SDS011;42992;49.084;19.300;2023-08-24T12:52:49;6.32;;;3.85;;
57111;SDS011;42992;49.084;19.300;2023-08-24T12:55:20;5.85;;;3.83;;
57111;SDS011;42992;49.084;19.300;2023-08-24T12:57:45;5.37;;;3.80;;
57111;SDS011;42992;49.084;19.300;2023-08-24T13:00:11;5.97;;;3.75;;
57111;SDS011;42992;49.084;19.300;2023-08-24T13:02:37;6.57;;;4.18;;
57111;SDS011;42992;49.084;19.300;2023-08-24T13:05:02;5.60;;;3.67;;
57111;SDS011;42992;49.084;19.300;2023-08-24T13:07:29;6.93;;;3.60;;
57111;SDS011;42992;49.084;19.300;2023-08-24T13:09:54;6.28;;;3.85;;
57111;SDS011;42992;49.084;19.300;2023-08-24T13:12:19;6.40;;;4.20;;
57111;SDS011;42992;49.084;19.300;2023-08-24T13:14:44;6.43;;;3.60;;
57111;SDS011;42992;49.084;19.300;2023-08-24T13:17:10;8.27;;;4.17;;
57111;SDS011;42992;49.084;19.300;2023-08-24T13:19:36;7.35;;;3.83;;
57111;SDS011;42992;49.084;19.300;2023-08-24T13:22:01;6.63;;;3.67;;
57111;SDS011;42992;49.084;19.300;2023-08-24T13:24:27;7.72;;;4.03;;
57111;SDS011;42992;49.084;19.300;2023-08-24T13:27:06;7.00;;;3.88;;
57111;SDS011;42992;49.084;19.300;2023-08-24T13:29:35;6.65;;;3.80;;
57111;SDS011;42992;49.084;19.300;2023-08-24T13:32:00;5.95;;;3.88;;
57111;SDS011;42992;49.084;19.300;2023-08-24T13:34:25;7.03;;;4.07;;
57111;SDS011;42992;49.084;19.300;2023-08-24T13:36:51;5.77;;;3.47;;
57111;SDS011;42992;49.084;19.300;2023-08-24T13:39:17;5.78;;;3.50;;
57111;SDS011;42992;49.084;19.300;2023-08-24T13:41:43;5.80;;;3.45;;
57111;SDS011;42992;49.084;19.300;2023-08-24T13:44:08;12.32;;;3.90;;
57111;SDS011;42992;49.084;19.300;2023-08-24T13:46:34;5.63;;;3.47;;
57111;SDS011;42992;49.084;19.300;2023-08-24T13:48:59;6.30;;;3.70;;
57111;SDS011;42992;49.084;19.300;2023-08-24T13:51:24;6.87;;;3.90;;
57111;SDS011;42992;49.084;19.300;2023-08-24T13:53:49;5.67;;;3.90;;
57111;SDS011;42992;49.084;19.300;2023-08-24T13:56:15;7.73;;;4.07;;
57111;SDS011;42992;49.084;19.300;2023-08-24T13:58:40;5.57;;;4.00;;
57111;SDS011;42992;49.084;19.300;2023-08-24T14:01:05;7.60;;;3.70;;
57111;SDS011;42992;49.084;19.300;2023-08-24T14:03:30;5.68;;;4.15;;
57111;SDS011;42992;49.084;19.300;2023-08-24T14:05:56;6.13;;;4.03;;
57111;SDS011;42992;49.084;19.300;2023-08-24T14:08:21;5.60;;;3.75;;
57111;SDS011;42992;49.084;19.300;2023-08-24T14:10:47;8.02;;;3.80;;
57111;SDS011;42992;49.084;19.300;2023-08-24T14:13:13;6.32;;;3.85;;
57111;SDS011;42992;49.084;19.300;2023-08-24T14:15:39;8.65;;;3.67;;
57111;SDS011;42992;49.084;19.300;2023-08-24T14:18:04;6.03;;;3.50;;
57111;SDS011;42992;49.084;19.300;2023-08-24T14:20:29;7.50;;;3.90;;
57111;SDS011;42992;49.084;19.300;2023-08-24T14:22:54;5.67;;;3.40;;